Time;durP1;ratioP1;P1;durP2;ratioP2;P2;SDS_P1;SDS_P2;PMS_P1;PMS_P2;Temp;Humidity;BMP_temperature;BMP_pressure;BME280_temperature;BME280_humidity;BME280_pressure;Samples;Min_cycle;Max_cycle;Signal;HPM_P1;HPM_P2
2022/03/01 00:01:35;;;;;;;;;;;;;;;;;;4964543;28;19922;-65
2022/03/01 00:04:01;;;;;;;;;;;;;;;;;;4963119;28;19969;-66
2022/03/01 00:06:30;;;;;;;;;;;;;;;;;;4964751;28;20057;-66
2022/03/01 00:08:56;;;;;;;;;;;;;;;;;;4945685;28;19929;-66
2022/03/01 00:11:22;;;;;;;;;;;;;;;;;;4968059;28;19957;-66
2022/03/01 00:13:48;;;;;;;;;;;;;;;;;;4965693;28;19924;-66
2022/03/01 00:16:14;;;;;;;;;;;;;;;;;;4957741;28;19918;-66
2022/03/01 00:18:40;;;;;;;;;;;;;;;;;;4964719;28;19989;-66
2022/03/01 00:21:06;;;;;;;;;;;;;;;;;;4959792;28;19918;-66
2022/03/01 00:23:33;;;;;;;;;;;;;;;;;;4963087;28;19929;-66
2022/03/01 00:25:59;;;;;;;;;;;;;;;;;;4957539;28;19918;-67
2022/03/01 00:28:25;;;;;;;;;;;;;;;;;;4965042;28;19930;-66
2022/03/01 00:30:51;;;;;;;;;;;;;;;;;;4947402;28;19918;-66
2022/03/01 00:33:18;;;;;;;;;;;;;;;;;;4957915;28;21200;-66
2022/03/01 00:35:44;;;;;;;;;;;;;;;;;;4947343;28;19918;-66
2022/03/01 00:38:10;;;;;;;;;;;;;;;;;;4956269;28;19914;-67
2022/03/01 00:40:36;;;;;;;;;;;;;;;;;;4949699;28;19918;-66
2022/03/01 00:43:02;;;;;;;;;;;;;;;;;;4959947;28;19968;-67
2022/03/01 00:45:28;;;;;;;;;;;;;;;;;;4967392;28;19922;-66
2022/03/01 00:47:54;;;;;;;;;;;;;;;;;;4965191;28;19914;-67
2022/03/01 00:50:20;;;;;;;;;;;;;;;;;;4960521;28;19921;-67
2022/03/01 00:52:46;;;;;;;;;;;;;;;;;;4961764;28;20427;-67
2022/03/01 00:55:12;;;;;;;;;;;;;;;;;;4942988;28;20017;-67
2022/03/01 00:57:39;;;;;;;;;;;;;;;;;;4961246;28;20009;-67
2022/03/01 01:00:05;;;;;;;;;;;;;;;;;;4957141;28;19964;-66
2022/03/01 01:02:31;;;;;;;;;;;;;;;;;;4964504;28;19918;-67
2022/03/01 01:04:57;;;;;;;;;;;;;;;;;;4961844;28;20388;-66
2022/03/01 01:07:25;;;;;;;;;;;;;;;;;;4967096;28;19914;-66
2022/03/01 01:09:54;;;;;;;;;;;;;;;;;;4963405;28;19931;-66
2022/03/01 01:12:20;;;;;;;;;;;;;;;;;;4961142;28;20324;-66
2022/03/01 01:14:46;;;;;;;;;;;;;;;;;;4945832;28;19922;-66
2022/03/01 01:17:12;;;;;;;;;;;;;;;;;;4956388;28;19952;-66
2022/03/01 01:19:38;;;;;;;;;;;;;;;;;;4966611;28;19940;-66
2022/03/01 01:24:49;;;;;;;;;;;;;;;;;;4964964;28;21084;-67
2022/03/01 01:27:15;;;;;;;;;;;;;;;;;;4946566;28;20619;-66
2022/03/01 01:29:42;;;;;;;;;;;;;;;;;;4961993;28;19933;-66
2022/03/01 01:32:10;;;;;;;;;;;;;;;;;;4958541;28;19932;-67
2022/03/01 01:34:36;;;;;;;;;;;;;;;;;;4961769;28;19975;-67
2022/03/01 01:37:03;;;;;;;;;;;;;;;;;;4957666;28;20407;-66
2022/03/01 01:39:29;;;;;;;;;;;;;;;;;;4964492;28;19944;-67
2022/03/01 01:41:55;;;;;;;;;;;;;;;;;;4956833;28;19921;-67
2022/03/01 01:44:21;;;;;;;;;;;;;;;;;;4940332;28;19952;-66
2022/03/01 01:46:47;;;;;;;;;;;;;;;;;;4962619;28;19933;-67
2022/03/01 01:49:13;;;;;;;;;;;;;;;;;;4955527;28;19930;-67
2022/03/01 01:51:40;;;;;;;;;;;;;;;;;;4944871;28;19918;-66
2022/03/01 01:54:06;;;;;;;;;;;;;;;;;;4959499;28;19988;-65
2022/03/01 01:56:33;;;;;;;;;;;;;;;;;;4962922;28;20806;-66
2022/03/01 01:59:01;;;;;;;;;;;;;;;;;;4958001;28;19917;-67
2022/03/01 02:01:27;;;;;;;;;;;;;;;;;;4945149;28;19926;-68
2022/03/01 02:03:55;;;;;;;;;;;;;;;;;;4949082;28;20295;-68
2022/03/01 02:06:20;;;;;;;;;;;;;;;;;;4959337;28;19922;-68
2022/03/01 02:08:46;;;;;;;;;;;;;;;;;;4960579;28;20001;-65
2022/03/01 02:11:13;;;;;;;;;;;;;;;;;;4957335;28;19918;-66
2022/03/01 02:13:40;;;;;;;;;;;;;;;;;;4961188;28;19913;-65
2022/03/01 02:16:06;;;;;;;;;;;;;;;;;;4958728;28;20059;-66
2022/03/01 02:18:33;;;;;;;;;;;;;;;;;;4962327;28;19918;-66
2022/03/01 02:21:00;;;;;;;;;;;;;;;;;;4960151;28;20412;-66
2022/03/01 02:23:26;;;;;;;;;;;;;;;;;;4963811;28;20448;-65
2022/03/01 02:25:52;;;;;;;;;;;;;;;;;;4945054;28;19922;-65
2022/03/01 02:28:18;;;;;;;;;;;;;;;;;;4960102;28;19947;-67
2022/03/01 02:30:44;;;;;;;;;;;;;;;;;;4964529;28;19918;-67
2022/03/01 02:33:11;;;;;;;;;;;;;;;;;;4941309;28;19922;-67
2022/03/01 02:35:37;;;;;;;;;;;;;;;;;;4962261;28;19926;-66
2022/03/01 02:38:03;;;;;;;;;;;;;;;;;;4958855;28;19917;-68
2022/03/01 02:40:30;;;;;;;;;;;;;;;;;;4961356;28;19918;-67
2022/03/01 02:42:56;;;;;;;;;;;;;;;;;;4962169;28;19918;-67
2022/03/01 02:45:22;;;;;;;;;;;;;;;;;;4959358;28;19922;-68
2022/03/01 02:47:48;;;;;;;;;;;;;;;;;;4965490;28;20768;-68
2022/03/01 02:50:14;;;;;;;;;;;;;;;;;;4939579;28;19917;-67
2022/03/01 02:52:40;;;;;;;;;;;;;;;;;;4933380;28;19918;-68
2022/03/01 02:55:06;;;;;;;;;;;;;;;;;;4956918;28;19918;-67
2022/03/01 02:57:33;;;;;;;;;;;;;;;;;;4956089;28;19925;-67
2022/03/01 02:59:59;;;;;;;;;;;;;;;;;;4963346;28;19937;-66
2022/03/01 03:02:25;;;;;;;;;;;;;;;;;;4971781;28;20697;-66
2022/03/01 03:04:51;;;;;;;;;;;;;;;;;;4972775;28;19926;-66
2022/03/01 03:07:17;;;;;;;;;;;;;;;;;;4963072;28;19926;-67
2022/03/01 03:09:43;;;;;;;;;;;;;;;;;;4972314;28;19926;-66
2022/03/01 03:12:09;;;;;;;;;;;;;;;;;;4968623;28;20025;-66
2022/03/01 03:14:35;;;;;;;;;;;;;;;;;;4970549;28;20003;-66
2022/03/01 03:17:01;;;;;;;;;;;;;;;;;;4968339;28;19926;-66
2022/03/01 03:19:27;;;;;;;;;;;;;;;;;;4957992;28;19999;-66
2022/03/01 03:21:53;;;;;;;;;;;;;;;;;;4953693;28;19929;-66
2022/03/01 03:24:20;;;;;;;;;;;;;;;;;;4968147;28;19929;-65
2022/03/01 03:26:46;;;;;;;;;;;;;;;;;;4971940;28;19921;-66
2022/03/01 03:29:12;;;;;;;;;;;;;;;;;;4965823;28;19952;-66
2022/03/01 03:31:38;;;;;;;;;;;;;;;;;;4970243;28;20316;-66
2022/03/01 03:34:04;;;;;;;;;;;;;;;;;;4967862;28;20004;-67
2022/03/01 03:36:30;;;;;;;;;;;;;;;;;;4967487;28;19918;-67
2022/03/01 03:38:58;;;;;;;;;;;;;;;;;;4967750;28;19924;-66
2022/03/01 03:41:24;;;;;;;;;;;;;;;;;;4955806;28;19932;-66
2022/03/01 03:43:50;;;;;;;;;;;;;;;;;;4968300;28;19926;-67
2022/03/01 03:46:16;;;;;;;;;;;;;;;;;;4963315;28;19922;-66
2022/03/01 03:48:43;;;;;;;;;;;;;;;;;;4972103;28;19922;-66
2022/03/01 03:51:09;;;;;;;;;;;;;;;;;;4965008;28;20023;-66
2022/03/01 03:53:35;;;;;;;;;;;;;;;;;;4969192;28;20060;-66
2022/03/01 03:56:02;;;;;;;;;;;;;;;;;;4970968;28;19917;-66
2022/03/01 03:58:29;;;;;;;;;;;;;;;;;;4969147;28;19918;-66
2022/03/01 04:00:55;;;;;;;;;;;;;;;;;;4970707;28;19968;-67
2022/03/01 04:03:23;;;;;;;;;;;;;;;;;;4972310;28;19925;-66
2022/03/01 04:05:50;;;;;;;;;;;;;;;;;;4952345;28;19947;-66
2022/03/01 04:08:16;;;;;;;;;;;;;;;;;;4965875;28;19969;-66
2022/03/01 04:10:43;;;;;;;;;;;;;;;;;;4956388;28;20040;-66
2022/03/01 04:13:09;;;;;;;;;;;;;;;;;;4965255;28;19976;-66
2022/03/01 04:15:37;;;;;;;;;;;;;;;;;;4968312;28;19924;-66
2022/03/01 04:18:05;;;;;;;;;;;;;;;;;;4967051;28;20209;-68
2022/03/01 04:20:31;;;;;;;;;;;;;;;;;;4968705;28;19984;-66
2022/03/01 04:22:57;;;;;;;;;;;;;;;;;;4966118;28;20605;-66
2022/03/01 04:25:23;;;;;;;;;;;;;;;;;;4971519;28;19921;-66
2022/03/01 04:27:49;;;;;;;;;;;;;;;;;;4969711;28;19922;-66
2022/03/01 04:30:15;;;;;;;;;;;;;;;;;;4963722;28;19921;-67
2022/03/01 04:32:42;;;;;;;;;;;;;;;;;;4970204;28;20016;-67
2022/03/01 04:35:10;;;;;;;;;;;;;;;;;;4968219;28;19918;-67
2022/03/01 04:37:36;;;;;;;;;;;;;;;;;;4969986;28;19983;-67
2022/03/01 04:40:02;;;;;;;;;;;;;;;;;;4967256;28;21442;-67
2022/03/01 04:42:28;;;;;;;;;;;;;;;;;;4972468;28;19964;-67
2022/03/01 04:44:54;;;;;;;;;;;;;;;;;;4967351;28;19922;-67
2022/03/01 04:47:20;;;;;;;;;;;;;;;;;;4968959;28;19987;-67
2022/03/01 04:49:46;;;;;;;;;;;;;;;;;;4966946;28;20394;-67
2022/03/01 04:52:12;;;;;;;;;;;;;;;;;;4964003;28;19918;-67
2022/03/01 04:54:39;;;;;;;;;;;;;;;;;;4971771;28;19964;-67
2022/03/01 04:57:06;;;;;;;;;;;;;;;;;;4969665;28;20436;-67
2022/03/01 04:59:32;;;;;;;;;;;;;;;;;;4968491;28;19957;-66
2022/03/01 05:01:59;;;;;;;;;;;;;;;;;;4951585;28;19918;-66
2022/03/01 05:04:27;;;;;;;;;;;;;;;;;;4972681;28;19918;-66
2022/03/01 05:06:53;;;;;;;;;;;;;;;;;;4969910;28;19918;-66
2022/03/01 05:09:21;;;;;;;;;;;;;;;;;;4950329;28;19925;-66
2022/03/01 05:11:46;;;;;;;;;;;;;;;;;;4970456;28;19925;-66
2022/03/01 05:14:13;;;;;;;;;;;;;;;;;;4963515;28;19921;-67
2022/03/01 05:16:39;;;;;;;;;;;;;;;;;;4967622;28;20444;-66
2022/03/01 05:19:07;;;;;;;;;;;;;;;;;;4965443;28;19925;-66
2022/03/01 05:21:34;;;;;;;;;;;;;;;;;;4967134;28;20328;-66
2022/03/01 05:24:01;;;;;;;;;;;;;;;;;;4955453;28;19918;-66
2022/03/01 05:26:27;;;;;;;;;;;;;;;;;;4968769;28;20635;-66
2022/03/01 05:28:53;;;;;;;;;;;;;;;;;;4966114;28;19925;-66
2022/03/01 05:31:20;;;;;;;;;;;;;;;;;;4967341;28;19928;-67
2022/03/01 05:33:47;;;;;;;;;;;;;;;;;;4975410;28;20336;-66
2022/03/01 05:36:13;;;;;;;;;;;;;;;;;;4963550;28;20437;-66
2022/03/01 05:38:41;;;;;;;;;;;;;;;;;;4974062;28;19925;-66
2022/03/01 05:41:08;;;;;;;;;;;;;;;;;;4966921;28;19964;-67
2022/03/01 05:43:34;;;;;;;;;;;;;;;;;;4970343;28;19922;-67
2022/03/01 05:46:00;;;;;;;;;;;;;;;;;;4963236;28;19914;-67
2022/03/01 05:48:29;;;;;;;;;;;;;;;;;;4973956;28;19999;-66
2022/03/01 05:50:55;;;;;;;;;;;;;;;;;;4967989;28;20399;-66
2022/03/01 05:53:21;;;;;;;;;;;;;;;;;;4949695;28;19945;-67
2022/03/01 05:55:48;;;;;;;;;;;;;;;;;;4965860;28;19918;-67
2022/03/01 05:58:14;;;;;;;;;;;;;;;;;;4962787;28;19918;-66
2022/03/01 06:00:40;;;;;;;;;;;;;;;;;;4970410;28;19938;-66
2022/03/01 06:03:06;;;;;;;;;;;;;;;;;;4953007;28;20004;-67
2022/03/01 06:05:32;;;;;;;;;;;;;;;;;;4967839;28;19918;-66
2022/03/01 06:07:59;;;;;;;;;;;;;;;;;;4948193;28;19981;-66
2022/03/01 06:10:26;;;;;;;;;;;;;;;;;;4975212;28;20689;-66
2022/03/01 06:12:52;;;;;;;;;;;;;;;;;;4951681;28;20072;-67
2022/03/01 06:15:18;;;;;;;;;;;;;;;;;;4966558;28;19922;-66
2022/03/01 06:17:44;;;;;;;;;;;;;;;;;;4954432;28;19945;-66
2022/03/01 06:20:11;;;;;;;;;;;;;;;;;;4959941;28;20442;-66
2022/03/01 06:22:38;;;;;;;;;;;;;;;;;;4968100;28;19928;-66
2022/03/01 06:25:04;;;;;;;;;;;;;;;;;;4952269;28;19918;-67
2022/03/01 06:27:31;;;;;;;;;;;;;;;;;;4969172;28;20286;-66
2022/03/01 06:29:57;;;;;;;;;;;;;;;;;;4967386;28;19926;-66
2022/03/01 06:32:23;;;;;;;;;;;;;;;;;;4978034;28;19918;-66
2022/03/01 06:34:50;;;;;;;;;;;;;;;;;;4972026;28;19945;-66
2022/03/01 06:37:17;;;;;;;;;;;;;;;;;;4956092;28;20053;-67
2022/03/01 06:39:44;;;;;;;;;;;;;;;;;;4971931;28;20348;-67
2022/03/01 06:42:10;;;;;;;;;;;;;;;;;;4967169;28;19984;-66
2022/03/01 06:44:36;;;;;;;;;;;;;;;;;;4953810;28;19921;-67
2022/03/01 06:47:02;;;;;;;;;;;;;;;;;;4972573;28;19918;-66
2022/03/01 06:49:29;;;;;;;;;;;;;;;;;;4968796;28;19929;-66
2022/03/01 06:51:55;;;;;;;;;;;;;;;;;;4970916;28;20003;-66
2022/03/01 06:54:23;;;;;;;;;;;;;;;;;;4953006;28;20005;-66
2022/03/01 06:56:50;;;;;;;;;;;;;;;;;;4972318;28;19917;-66
2022/03/01 06:59:17;;;;;;;;;;;;;;;;;;4967948;28;20803;-66
2022/03/01 07:01:43;;;;;;;;;;;;;;;;;;4970386;28;20512;-66
2022/03/01 07:04:11;;;;;;;;;;;;;;;;;;4968184;28;19922;-67
2022/03/01 07:06:37;;;;;;;;;;;;;;;;;;4970467;28;20528;-66
2022/03/01 07:09:04;;;;;;;;;;;;;;;;;;4968250;28;19922;-67
2022/03/01 07:11:30;;;;;;;;;;;;;;;;;;4972595;28;20028;-66
2022/03/01 07:13:56;;;;;;;;;;;;;;;;;;4967527;28;19924;-66
2022/03/01 07:16:23;;;;;;;;;;;;;;;;;;4954202;28;20819;-72
2022/03/01 07:18:51;;;;;;;;;;;;;;;;;;4970130;28;19917;-67
2022/03/01 07:21:17;;;;;;;;;;;;;;;;;;4965983;28;20565;-66
2022/03/01 07:23:43;;;;;;;;;;;;;;;;;;4955759;28;19918;-66
2022/03/01 07:26:10;;;;;;;;;;;;;;;;;;4966701;28;19946;-66
2022/03/01 07:28:36;;;;;;;;;;;;;;;;;;4968361;28;19932;-67
2022/03/01 07:31:02;;;;;;;;;;;;;;;;;;4963390;28;19922;-66
2022/03/01 07:33:29;;;;;;;;;;;;;;;;;;4966316;28;19922;-67
2022/03/01 07:35:55;;;;;;;;;;;;;;;;;;4964899;28;19917;-67
2022/03/01 07:38:21;;;;;;;;;;;;;;;;;;4963545;28;19929;-66
2022/03/01 07:40:48;;;;;;;;;;;;;;;;;;4967139;28;19918;-66
2022/03/01 07:43:14;;;;;;;;;;;;;;;;;;4962241;28;19960;-66
2022/03/01 07:45:41;;;;;;;;;;;;;;;;;;4967301;28;19922;-67
2022/03/01 07:48:10;;;;;;;;;;;;;;;;;;4967332;28;19917;-67
2022/03/01 07:50:39;;;;;;;;;;;;;;;;;;4965070;28;19917;-67
2022/03/01 07:53:05;;;;;;;;;;;;;;;;;;4960994;28;20097;-67
2022/03/01 07:55:31;;;;;;;;;;;;;;;;;;4967193;28;19980;-67
2022/03/01 07:57:59;;;;;;;;;;;;;;;;;;4959378;28;19929;-67
2022/03/01 08:00:25;;;;;;;;;;;;;;;;;;4930478;28;19926;-67
2022/03/01 08:02:53;;;;;;;;;;;;;;;;;;4932712;28;19978;-67
2022/03/01 08:05:19;;;;;;;;;;;;;;;;;;4925582;28;19985;-67
2022/03/01 08:07:45;;;;;;;;;;;;;;;;;;4930360;28;19927;-67
2022/03/01 08:10:11;;;;;;;;;;;;;;;;;;4930550;28;19952;-67
2022/03/01 08:12:37;;;;;;;;;;;;;;;;;;4930566;28;19933;-67
2022/03/01 08:15:03;;;;;;;;;;;;;;;;;;4927684;28;19919;-67
2022/03/01 08:17:30;;;;;;;;;;;;;;;;;;4933296;28;20466;-67
2022/03/01 08:19:56;;;;;;;;;;;;;;;;;;4925678;28;19918;-67
2022/03/01 08:22:22;;;;;;;;;;;;;;;;;;4928420;28;20009;-67
2022/03/01 08:24:50;;;;;;;;;;;;;;;;;;4932331;28;19919;-67
2022/03/01 08:27:17;;;;;;;;;;;;;;;;;;4925651;28;19978;-67
2022/03/01 08:29:43;;;;;;;;;;;;;;;;;;4929929;28;19922;-67
2022/03/01 08:32:11;;;;;;;;;;;;;;;;;;4926703;28;19926;-67
2022/03/01 08:34:37;;;;;;;;;;;;;;;;;;4927279;28;19997;-67
2022/03/01 08:37:03;;;;;;;;;;;;;;;;;;4925071;28;19918;-68
2022/03/01 08:39:29;;;;;;;;;;;;;;;;;;4931454;28;19965;-68
2022/03/01 08:41:55;;;;;;;;;;;;;;;;;;4928165;28;19919;-67
2022/03/01 08:44:21;;;;;;;;;;;;;;;;;;4926862;28;19926;-69
2022/03/01 08:46:47;;;;;;;;;;;;;;;;;;4927134;28;19919;-69
2022/03/01 08:49:14;;;;;;;;;;;;;;;;;;4926953;28;19933;-66
2022/03/01 08:51:43;;;;;;;;;;;;;;;;;;4960244;28;19917;-66
2022/03/01 08:54:09;;;;;;;;;;;;;;;;;;4962241;28;19918;-69
2022/03/01 08:56:36;;;;;;;;;;;;;;;;;;4968871;28;19922;-69
2022/03/01 08:59:05;;;;;;;;;;;;;;;;;;4942384;28;19931;-72
2022/03/01 09:01:32;;;;;;;;;;;;;;;;;;4967962;28;19996;-68
2022/03/01 09:03:59;;;;;;;;;;;;;;;;;;4951037;28;20394;-64
2022/03/01 09:06:26;;;;;;;;;;;;;;;;;;4968685;28;19972;-66
2022/03/01 09:08:53;;;;;;;;;;;;;;;;;;4953231;28;19926;-62
2022/03/01 09:11:19;;;;;;;;;;;;;;;;;;4966170;28;20000;-63
2022/03/01 09:13:45;;;;;;;;;;;;;;;;;;4966652;28;19922;-62
2022/03/01 09:16:11;;;;;;;;;;;;;;;;;;4966334;28;20493;-65
2022/03/01 09:18:37;;;;;;;;;;;;;;;;;;4969355;28;19988;-63
2022/03/01 09:21:03;;;;;;;;;;;;;;;;;;4966537;28;19925;-63
2022/03/01 09:23:29;;;;;;;;;;;;;;;;;;4967465;28;19924;-63
2022/03/01 09:25:55;;;;;;;;;;;;;;;;;;4953196;28;19918;-64
2022/03/01 09:28:21;;;;;;;;;;;;;;;;;;4966567;28;20282;-64
2022/03/01 09:30:48;;;;;;;;;;;;;;;;;;4968689;28;19918;-63
2022/03/01 09:33:14;;;;;;;;;;;;;;;;;;4947964;28;19918;-64
2022/03/01 09:35:40;;;;;;;;;;;;;;;;;;4969243;28;19922;-64
2022/03/01 09:38:09;;;;;;;;;;;;;;;;;;4961890;28;20365;-65
2022/03/01 09:40:38;;;;;;;;;;;;;;;;;;4967503;28;19918;-64
2022/03/01 09:43:05;;;;;;;;;;;;;;;;;;4948176;28;19917;-65
2022/03/01 09:45:32;;;;;;;;;;;;;;;;;;4951666;28;19922;-65
2022/03/01 09:47:59;;;;;;;;;;;;;;;;;;4967526;28;19925;-65
2022/03/01 09:50:31;;;;;;;;;;;;;;;;;;4971287;28;20325;-65
2022/03/01 09:52:57;;;;;;;;;;;;;;;;;;4965131;28;20016;-66
2022/03/01 09:55:24;;;;;;;;;;;;;;;;;;4969541;28;20566;-66
2022/03/01 09:57:51;;;;;;;;;;;;;;;;;;4943985;28;19921;-66
2022/03/01 10:00:17;;;;;;;;;;;;;;;;;;4928982;28;20803;-66
2022/03/01 10:02:43;;;;;;;;;;;;;;;;;;4926830;28;19919;-66
2022/03/01 10:05:09;;;;;;;;;;;;;;;;;;4927037;28;19923;-66
2022/03/01 10:07:35;;;;;;;;;;;;;;;;;;4927013;28;19919;-66
2022/03/01 10:10:01;;;;;;;;;;;;;;;;;;4926016;28;20009;-66
2022/03/01 10:12:29;;;;;;;;;;;;;;;;;;4927996;28;19942;-68
2022/03/01 10:14:55;;;;;;;;;;;;;;;;;;4930323;28;19918;-68
2022/03/01 10:17:21;;;;;;;;;;;;;;;;;;4924428;28;19918;-68
2022/03/01 10:19:47;;;;;;;;;;;;;;;;;;4925523;28;21181;-67
2022/03/01 10:22:13;;;;;;;;;;;;;;;;;;4922693;28;20365;-68
2022/03/01 10:24:39;;;;;;;;;;;;;;;;;;4929601;28;19993;-69
2022/03/01 10:27:08;;;;;;;;;;;;;;;;;;4925133;28;20588;-68
2022/03/01 10:29:34;;;;;;;;;;;;;;;;;;4929167;28;19961;-67
2022/03/01 10:32:07;;;;;;;;;;;;;;;;;;4940700;28;21821;-67
2022/03/01 10:34:34;;;;;;;;;;;;;;;;;;4927297;28;20324;-68
2022/03/01 10:37:00;;;;;;;;;;;;;;;;;;4945881;28;19918;-68
2022/03/01 10:39:26;;;;;;;;;;;;;;;;;;4925621;28;19984;-67
2022/03/01 10:41:52;;;;;;;;;;;;;;;;;;4925055;28;19926;-69
2022/03/01 10:44:18;;;;;;;;;;;;;;;;;;4920634;28;19945;-67
2022/03/01 10:46:46;;;;;;;;;;;;;;;;;;4931876;28;19925;-68
2022/03/01 10:49:12;;;;;;;;;;;;;;;;;;4922300;28;19926;-67
2022/03/01 10:51:38;;;;;;;;;;;;;;;;;;4942436;28;19927;-68
2022/03/01 10:54:04;;;;;;;;;;;;;;;;;;4923130;28;19918;-67
2022/03/01 10:56:31;;;;;;;;;;;;;;;;;;4924799;28;20609;-67
2022/03/01 10:58:57;;;;;;;;;;;;;;;;;;4928336;28;19923;-68
2022/03/01 11:01:27;;;;;;;;;;;;;;;;;;4963389;28;19918;-69
2022/03/01 11:03:55;;;;;;;;;;;;;;;;;;4965596;28;19922;-69
2022/03/01 11:06:21;;;;;;;;;;;;;;;;;;4963297;28;20103;-67
2022/03/01 11:08:47;;;;;;;;;;;;;;;;;;4946564;28;19965;-67
2022/03/01 11:11:13;;;;;;;;;;;;;;;;;;4961091;28;19925;-69
2022/03/01 11:13:39;;;;;;;;;;;;;;;;;;4967433;28;19918;-67
2022/03/01 11:16:05;;;;;;;;;;;;;;;;;;4962074;28;19991;-67
2022/03/01 11:18:31;;;;;;;;;;;;;;;;;;4953108;28;19988;-66
2022/03/01 11:20:57;;;;;;;;;;;;;;;;;;4951620;28;19948;-66
2022/03/01 11:23:23;;;;;;;;;;;;;;;;;;4967934;28;19917;-66
2022/03/01 11:25:49;;;;;;;;;;;;;;;;;;4951604;28;19918;-66
2022/03/01 11:28:18;;;;;;;;;;;;;;;;;;4967501;28;19944;-66
2022/03/01 11:30:47;;;;;;;;;;;;;;;;;;4967441;28;19925;-66
2022/03/01 11:33:16;;;;;;;;;;;;;;;;;;4969027;28;19921;-66
2022/03/01 11:35:43;;;;;;;;;;;;;;;;;;4967597;28;19996;-66
2022/03/01 11:38:09;;;;;;;;;;;;;;;;;;4966896;28;19918;-65
2022/03/01 11:40:35;;;;;;;;;;;;;;;;;;4956528;28;19925;-65
2022/03/01 11:43:01;;;;;;;;;;;;;;;;;;4965103;28;19940;-65
2022/03/01 11:45:27;;;;;;;;;;;;;;;;;;4970815;28;20021;-65
2022/03/01 11:47:54;;;;;;;;;;;;;;;;;;4966463;28;19960;-65
2022/03/01 11:50:23;;;;;;;;;;;;;;;;;;4965153;28;20040;-65
2022/03/01 11:52:50;;;;;;;;;;;;;;;;;;4972156;28;19917;-65
2022/03/01 11:55:17;;;;;;;;;;;;;;;;;;4966218;28;20834;-66
2022/03/01 11:57:44;;;;;;;;;;;;;;;;;;4965504;28;20060;-65
2022/03/01 12:00:10;;;;;;;;;;;;;;;;;;4968815;28;19925;-66
2022/03/01 12:02:36;;;;;;;;;;;;;;;;;;4952458;28;19965;-66
2022/03/01 12:05:02;;;;;;;;;;;;;;;;;;4963469;28;19984;-66
2022/03/01 12:07:34;;;;;;;;;;;;;;;;;;4970270;28;19922;-66
2022/03/01 12:10:02;;;;;;;;;;;;;;;;;;4966646;28;20325;-66
2022/03/01 12:12:28;;;;;;;;;;;;;;;;;;4970644;28;19918;-66
2022/03/01 12:14:55;;;;;;;;;;;;;;;;;;4968062;28;19917;-66
2022/03/01 12:17:24;;;;;;;;;;;;;;;;;;4965055;28;19914;-66
2022/03/01 12:19:50;;;;;;;;;;;;;;;;;;4967209;28;19926;-66
2022/03/01 12:22:16;;;;;;;;;;;;;;;;;;4952756;28;22000;-66
2022/03/01 12:24:42;;;;;;;;;;;;;;;;;;4968149;28;20765;-65
2022/03/01 12:27:11;;;;;;;;;;;;;;;;;;4946644;28;20534;-65
2022/03/01 12:29:37;;;;;;;;;;;;;;;;;;4971330;28;19926;-66
2022/03/01 12:32:03;;;;;;;;;;;;;;;;;;4962338;28;19921;-66
2022/03/01 12:34:29;;;;;;;;;;;;;;;;;;4967038;28;20032;-65
2022/03/01 12:36:55;;;;;;;;;;;;;;;;;;4969526;28;20317;-66
2022/03/01 12:39:21;;;;;;;;;;;;;;;;;;4964034;28;20481;-65
2022/03/01 12:41:48;;;;;;;;;;;;;;;;;;4970363;28;19991;-65
2022/03/01 12:44:15;;;;;;;;;;;;;;;;;;4963668;28;19922;-65
2022/03/01 12:46:42;;;;;;;;;;;;;;;;;;4966306;28;19922;-65
2022/03/01 12:49:09;;;;;;;;;;;;;;;;;;4963338;28;19926;-66
2022/03/01 12:51:36;;;;;;;;;;;;;;;;;;4950769;28;19961;-66
2022/03/01 12:54:03;;;;;;;;;;;;;;;;;;4963521;28;19924;-66
2022/03/01 12:56:29;;;;;;;;;;;;;;;;;;4969990;28;20337;-66
2022/03/01 12:58:55;;;;;;;;;;;;;;;;;;4970917;28;19999;-67
2022/03/01 13:01:21;;;;;;;;;;;;;;;;;;4948857;28;20059;-66
2022/03/01 13:03:47;;;;;;;;;;;;;;;;;;4967827;28;20053;-66
2022/03/01 13:06:14;;;;;;;;;;;;;;;;;;4962863;28;19917;-67
2022/03/01 13:08:41;;;;;;;;;;;;;;;;;;4968887;28;19928;-67
2022/03/01 13:11:08;;;;;;;;;;;;;;;;;;4964746;28;19929;-67
2022/03/01 13:13:36;;;;;;;;;;;;;;;;;;4964156;28;19922;-66
2022/03/01 13:16:02;;;;;;;;;;;;;;;;;;4962087;28;19941;-67
2022/03/01 13:18:28;;;;;;;;;;;;;;;;;;4968211;28;19924;-67
2022/03/01 13:20:54;;;;;;;;;;;;;;;;;;4966512;28;19922;-67
2022/03/01 13:23:21;;;;;;;;;;;;;;;;;;4948232;28;19925;-67
2022/03/01 13:25:47;;;;;;;;;;;;;;;;;;4952709;28;19917;-66
2022/03/01 13:28:14;;;;;;;;;;;;;;;;;;4946987;28;19918;-67
2022/03/01 13:30:41;;;;;;;;;;;;;;;;;;4966804;28;19918;-67
2022/03/01 13:33:07;;;;;;;;;;;;;;;;;;4966702;28;19926;-67
2022/03/01 13:35:33;;;;;;;;;;;;;;;;;;4968222;28;19918;-67
2022/03/01 13:38:00;;;;;;;;;;;;;;;;;;4966794;28;19924;-67
2022/03/01 13:40:27;;;;;;;;;;;;;;;;;;4968118;28;20071;-67
2022/03/01 13:42:55;;;;;;;;;;;;;;;;;;4969147;28;20379;-67
2022/03/01 13:45:21;;;;;;;;;;;;;;;;;;4968160;28;19997;-66
2022/03/01 13:47:47;;;;;;;;;;;;;;;;;;4967746;28;20304;-66
2022/03/01 13:50:13;;;;;;;;;;;;;;;;;;4963333;28;19972;-66
2022/03/01 13:52:41;;;;;;;;;;;;;;;;;;4967923;28;19928;-66
2022/03/01 13:55:07;;;;;;;;;;;;;;;;;;4962867;28;19925;-67
2022/03/01 13:57:35;;;;;;;;;;;;;;;;;;4953161;28;19940;-66
2022/03/01 14:00:01;;;;;;;;;;;;;;;;;;4967054;28;19988;-66
2022/03/01 14:02:27;;;;;;;;;;;;;;;;;;4965960;28;19929;-66
2022/03/01 14:04:54;;;;;;;;;;;;;;;;;;4952281;28;19922;-66
2022/03/01 14:07:20;;;;;;;;;;;;;;;;;;4962488;28;20455;-66
2022/03/01 14:09:46;;;;;;;;;;;;;;;;;;4965992;28;19922;-66
2022/03/01 14:12:12;;;;;;;;;;;;;;;;;;4964306;28;20808;-66
2022/03/01 14:14:38;;;;;;;;;;;;;;;;;;4972144;28;19973;-66
2022/03/01 14:17:06;;;;;;;;;;;;;;;;;;4962704;28;20667;-66
2022/03/01 14:19:33;;;;;;;;;;;;;;;;;;4965334;28;20024;-66
2022/03/01 14:21:59;;;;;;;;;;;;;;;;;;4963572;28;20583;-66
2022/03/01 14:24:25;;;;;;;;;;;;;;;;;;4962191;28;19926;-66
2022/03/01 14:26:51;;;;;;;;;;;;;;;;;;4970122;28;19918;-66
2022/03/01 14:29:17;;;;;;;;;;;;;;;;;;4964972;28;20217;-66
2022/03/01 14:31:45;;;;;;;;;;;;;;;;;;4966610;28;20109;-66
2022/03/01 14:34:11;;;;;;;;;;;;;;;;;;4964862;28;20004;-66
2022/03/01 14:36:39;;;;;;;;;;;;;;;;;;4968963;28;19944;-66
2022/03/01 14:39:07;;;;;;;;;;;;;;;;;;4962170;28;19943;-66
2022/03/01 14:41:34;;;;;;;;;;;;;;;;;;4967674;28;19953;-66
2022/03/01 14:44:02;;;;;;;;;;;;;;;;;;4946325;28;19950;-66
2022/03/01 14:46:30;;;;;;;;;;;;;;;;;;4964988;28;19928;-66
2022/03/01 14:48:56;;;;;;;;;;;;;;;;;;4966718;28;19926;-66
2022/03/01 14:51:22;;;;;;;;;;;;;;;;;;4968759;28;19925;-66
2022/03/01 14:53:48;;;;;;;;;;;;;;;;;;4970800;28;19925;-66
2022/03/01 14:56:14;;;;;;;;;;;;;;;;;;4950714;28;19918;-66
2022/03/01 14:58:41;;;;;;;;;;;;;;;;;;4953932;28;19960;-66
2022/03/01 15:01:07;;;;;;;;;;;;;;;;;;4971002;28;19929;-66
2022/03/01 15:03:33;;;;;;;;;;;;;;;;;;4971552;28;19953;-66
2022/03/01 15:05:59;;;;;;;;;;;;;;;;;;4964925;28;20451;-66
2022/03/01 15:08:26;;;;;;;;;;;;;;;;;;4974970;28;19925;-66
2022/03/01 15:10:52;;;;;;;;;;;;;;;;;;4969818;28;19918;-66
2022/03/01 15:13:18;;;;;;;;;;;;;;;;;;4965897;28;20021;-66
2022/03/01 15:15:46;;;;;;;;;;;;;;;;;;4974125;28;19967;-66
2022/03/01 15:18:14;;;;;;;;;;;;;;;;;;4949677;28;20056;-65
2022/03/01 15:20:40;;;;;;;;;;;;;;;;;;4968795;28;20292;-67
2022/03/01 15:23:06;;;;;;;;;;;;;;;;;;4967150;28;20481;-66
2022/03/01 15:25:32;;;;;;;;;;;;;;;;;;4969911;28;19918;-66
2022/03/01 15:28:01;;;;;;;;;;;;;;;;;;4966693;28;19918;-66
2022/03/01 15:30:27;;;;;;;;;;;;;;;;;;4969685;28;19921;-70
2022/03/01 15:32:54;;;;;;;;;;;;;;;;;;4970054;28;19925;-66
2022/03/01 15:35:21;;;;;;;;;;;;;;;;;;4965592;28;19971;-65
2022/03/01 15:37:50;;;;;;;;;;;;;;;;;;4971777;28;19917;-66
2022/03/01 15:40:16;;;;;;;;;;;;;;;;;;4965728;28;20773;-65
2022/03/01 15:42:43;;;;;;;;;;;;;;;;;;4974081;28;19918;-65
2022/03/01 15:45:09;;;;;;;;;;;;;;;;;;4951148;28;19924;-66
2022/03/01 15:47:35;;;;;;;;;;;;;;;;;;4968740;28;19921;-66
2022/03/01 15:50:02;;;;;;;;;;;;;;;;;;4954171;28;20640;-65
2022/03/01 15:52:30;;;;;;;;;;;;;;;;;;4965676;28;20403;-65
2022/03/01 15:54:56;;;;;;;;;;;;;;;;;;4951285;28;20033;-66
2022/03/01 15:57:23;;;;;;;;;;;;;;;;;;4968253;28;19922;-65
2022/03/01 15:59:48;;;;;;;;;;;;;;;;;;4952320;28;19918;-65
2022/03/01 16:02:14;;;;;;;;;;;;;;;;;;4963956;28;19922;-66
2022/03/01 16:04:42;;;;;;;;;;;;;;;;;;4971820;28;19953;-65
2022/03/01 16:07:08;;;;;;;;;;;;;;;;;;4947567;28;19987;-66
2022/03/01 16:09:34;;;;;;;;;;;;;;;;;;4969845;28;20316;-65
2022/03/01 16:12:00;;;;;;;;;;;;;;;;;;4964792;28;19924;-65
2022/03/01 16:14:28;;;;;;;;;;;;;;;;;;4967647;28;20420;-65
2022/03/01 16:16:56;;;;;;;;;;;;;;;;;;4969278;28;19952;-65
2022/03/01 16:19:22;;;;;;;;;;;;;;;;;;4968901;28;19928;-66
2022/03/01 16:21:48;;;;;;;;;;;;;;;;;;4969335;28;19922;-65
2022/03/01 16:24:15;;;;;;;;;;;;;;;;;;4961558;28;19918;-65
2022/03/01 16:26:41;;;;;;;;;;;;;;;;;;4972396;28;19918;-66
2022/03/01 16:29:07;;;;;;;;;;;;;;;;;;4946035;28;20325;-66
2022/03/01 16:31:33;;;;;;;;;;;;;;;;;;4971325;28;20755;-67
2022/03/01 16:34:00;;;;;;;;;;;;;;;;;;4965823;28;19945;-65
2022/03/01 16:36:28;;;;;;;;;;;;;;;;;;4968247;28;19921;-66
2022/03/01 16:38:54;;;;;;;;;;;;;;;;;;4965488;28;20040;-66
2022/03/01 16:41:20;;;;;;;;;;;;;;;;;;4968442;28;19994;-66
2022/03/01 16:43:47;;;;;;;;;;;;;;;;;;4965268;28;19933;-66